Time;durP1;ratioP1;P1;durP2;ratioP2;P2;SDS_P1;SDS_P2;PMS_P1;PMS_P2;Temp;Humidity;BMP_temperature;BMP_pressure;BME280_temperature;BME280_humidity;BME280_pressure;Samples;Min_cycle;Max_cycle;Signal;HPM_P1;HPM_P2
2022/08/05 00:00:05;;;;;;;0.10;0.10;;;19.20;99.90;;;;;;5060395;28;20074;-76
2022/08/05 00:02:30;;;;;;;0.10;0.10;;;19.20;99.90;;;;;;5062197;28;20463;-76
2022/08/05 00:04:56;;;;;;;0.10;0.10;;;19.20;99.90;;;;;;5068917;28;20091;-76
2022/08/05 00:07:24;;;;;;;0.10;0.10;;;19.20;99.90;;;;;;5078497;28;20126;-76
2022/08/05 00:09:50;;;;;;;0.20;0.20;;;19.20;99.90;;;;;;5058561;28;20622;-76
2022/08/05 00:12:16;;;;;;;0.20;0.20;;;19.20;99.90;;;;;;5057489;28;20048;-77
2022/08/05 00:14:41;;;;;;;0.20;0.20;;;19.20;99.90;;;;;;5064316;28;20133;-76
2022/08/05 00:17:07;;;;;;;0.10;0.10;;;19.20;99.90;;;;;;5065511;28;20044;-76
2022/08/05 00:19:32;;;;;;;0.20;0.20;;;19.10;99.90;;;;;;5066117;28;20051;-76
2022/08/05 00:21:58;;;;;;;0.10;0.10;;;19.10;99.90;;;;;;5053410;28;20029;-76
2022/08/05 00:24:24;;;;;;;0.20;0.20;;;19.10;99.90;;;;;;5068010;28;20097;-75
2022/08/05 00:26:49;;;;;;;0.20;0.20;;;19.10;99.90;;;;;;5057243;28;20029;-75
2022/08/05 00:29:15;;;;;;;0.10;0.10;;;19.10;99.90;;;;;;5062237;28;20356;-76
2022/08/05 00:31:40;;;;;;;0.22;0.22;;;19.20;99.90;;;;;;5065286;28;20388;-76
2022/08/05 00:34:06;;;;;;;0.20;0.20;;;19.10;99.90;;;;;;5071767;28;20045;-76
2022/08/05 00:36:32;;;;;;;0.15;0.15;;;19.10;99.90;;;;;;5064761;28;20041;-75
2022/08/05 00:38:57;;;;;;;0.20;0.20;;;19.00;99.90;;;;;;5070204;28;20432;-76
2022/08/05 00:41:31;;;;;;;0.20;0.20;;;19.00;99.90;;;;;;5070075;28;20485;-76
2022/08/05 00:43:57;;;;;;;0.20;0.20;;;19.00;99.90;;;;;;5058673;28;20076;-76
2022/08/05 00:46:26;;;;;;;0.10;0.10;;;18.90;99.90;;;;;;5066935;28;20060;-76
2022/08/05 00:48:52;;;;;;;0.10;0.10;;;18.90;99.90;;;;;;5063765;28;20133;-75
2022/08/05 00:51:21;;;;;;;0.10;0.10;;;19.00;99.90;;;;;;5055138;28;20563;-76
2022/08/05 00:53:48;;;;;;;0.10;0.10;;;18.80;99.90;;;;;;5075121;28;20053;-75
2022/08/05 00:56:15;;;;;;;0.20;0.20;;;18.80;99.90;;;;;;5058842;28;20045;-75
2022/08/05 00:58:41;;;;;;;0.20;0.20;;;18.80;99.90;;;;;;5071220;28;20106;-76
2022/08/05 01:01:09;;;;;;;0.10;0.10;;;18.90;99.90;;;;;;5071801;28;20064;-75
2022/08/05 01:03:35;;;;;;;0.10;0.10;;;18.70;99.90;;;;;;5061969;28;20052;-75
2022/08/05 01:06:01;;;;;;;0.20;0.20;;;18.70;99.90;;;;;;5054864;28;20037;-76
2022/08/05 01:08:27;;;;;;;0.20;0.20;;;18.70;99.90;;;;;;5064342;28;20056;-75
2022/08/05 01:11:01;;;;;;;0.20;0.20;;;18.60;99.90;;;;;;5062245;28;20044;-75
2022/08/05 01:13:36;;;;;;;0.20;0.20;;;18.70;99.90;;;;;;5055836;28;20181;-74
2022/08/05 01:16:06;;;;;;;0.10;0.10;;;18.80;99.90;;;;;;5063409;28;20080;-75
2022/08/05 01:18:39;;;;;;;0.20;0.20;;;18.80;99.90;;;;;;5058547;28;20131;-75
2022/08/05 01:21:50;;;;;;;0.10;0.10;;;18.80;99.90;;;;;;5066392;28;20028;-75
2022/08/05 01:24:56;;;;;;;0.20;0.20;;;18.70;99.90;;;;;;5059193;28;20037;-75
2022/08/05 01:27:41;;;;;;;0.20;0.20;;;18.70;99.90;;;;;;5061079;28;20029;-75
2022/08/05 01:30:07;;;;;;;0.10;0.10;;;18.70;99.90;;;;;;5052988;28;20059;-75
2022/08/05 01:32:34;;;;;;;0.10;0.10;;;18.70;99.90;;;;;;5053336;28;20518;-75
2022/08/05 01:35:11;;;;;;;0.20;0.20;;;18.70;99.90;;;;;;5059618;28;20048;-75
2022/08/05 01:37:53;;;;;;;0.20;0.20;;;18.70;99.90;;;;;;5056777;28;20076;-75
2022/08/05 01:40:23;;;;;;;0.20;0.20;;;18.70;99.90;;;;;;5077660;28;20052;-75
2022/08/05 01:42:50;;;;;;;0.10;0.10;;;18.70;99.90;;;;;;5058912;28;20040;-75
2022/08/05 01:45:19;;;;;;;0.10;0.10;;;18.80;99.90;;;;;;5049944;28;20041;-75
2022/08/05 01:47:46;;;;;;;0.17;0.17;;;18.70;99.90;;;;;;5071062;28;20058;-76
2022/08/05 01:50:19;;;;;;;0.20;0.20;;;18.80;99.90;;;;;;5064860;28;20041;-75
2022/08/05 01:52:47;;;;;;;0.10;0.10;;;18.70;99.90;;;;;;5067849;28;20047;-75
2022/08/05 01:55:16;;;;;;;0.15;0.15;;;18.70;99.90;;;;;;5062836;28;20040;-75
2022/08/05 01:57:45;;;;;;;0.20;0.20;;;18.80;99.90;;;;;;5064732;28;20132;-76
2022/08/05 02:00:11;;;;;;;0.20;0.20;;;18.70;99.90;;;;;;5058774;28;20055;-76
2022/08/05 02:02:50;;;;;;;0.20;0.20;;;18.70;99.90;;;;;;5062654;28;20369;-75
2022/08/05 02:05:19;;;;;;;0.20;0.20;;;18.70;99.90;;;;;;5068939;28;20040;-75
2022/08/05 02:07:45;;;;;;;0.20;0.20;;;18.70;99.90;;;;;;5053982;28;20484;-76
2022/08/05 02:10:11;;;;;;;0.20;0.20;;;18.70;99.90;;;;;;5064685;28;20868;-76
2022/08/05 02:12:53;;;;;;;0.10;0.10;;;18.70;99.90;;;;;;5056116;28;20036;-75
2022/08/05 02:15:33;;;;;;;0.20;0.20;;;18.70;99.90;;;;;;5067223;28;20048;-75
2022/08/05 02:18:15;;;;;;;0.20;0.20;;;18.70;99.90;;;;;;5056363;28;20036;-75
2022/08/05 02:20:53;;;;;;;0.20;0.20;;;18.70;99.90;;;;;;5071253;28;20052;-75
2022/08/05 02:23:23;;;;;;;0.20;0.20;;;18.70;99.90;;;;;;5058940;28;20044;-75
2022/08/05 02:25:51;;;;;;;0.20;0.20;;;18.80;99.90;;;;;;5058829;28;20040;-76
2022/08/05 02:28:24;;;;;;;0.20;0.20;;;18.70;99.90;;;;;;5053347;28;20040;-76
2022/08/05 02:30:56;;;;;;;0.20;0.20;;;18.70;99.90;;;;;;5073567;28;20491;-75
2022/08/05 02:33:24;;;;;;;0.20;0.20;;;18.70;99.90;;;;;;5081154;28;20044;-76
2022/08/05 02:35:52;;;;;;;0.20;0.20;;;18.70;99.90;;;;;;5070512;28;20044;-76
2022/08/05 02:38:19;;;;;;;0.20;0.20;;;18.70;99.90;;;;;;5069968;28;20040;-76
2022/08/05 02:40:45;;;;;;;0.20;0.20;;;18.70;99.90;;;;;;5067339;28;20032;-76
2022/08/05 02:43:12;;;;;;;0.20;0.20;;;18.70;99.90;;;;;;5075271;28;20058;-76
2022/08/05 02:45:40;;;;;;;0.20;0.20;;;18.60;99.90;;;;;;5077930;28;20052;-76
2022/08/05 02:48:07;;;;;;;0.20;0.20;;;18.60;99.90;;;;;;5069609;28;20062;-76
2022/08/05 02:50:34;;;;;;;0.20;0.20;;;18.60;99.90;;;;;;5075180;28;20036;-75
2022/08/05 02:53:04;;;;;;;0.20;0.20;;;18.60;99.90;;;;;;5077356;28;20086;-76
2022/08/05 02:55:31;;;;;;;0.20;0.20;;;18.70;99.90;;;;;;5069518;28;20045;-76
2022/08/05 02:57:58;;;;;;;0.15;0.15;;;18.60;99.90;;;;;;5075063;28;20044;-76
2022/08/05 03:00:24;;;;;;;0.20;0.20;;;18.60;99.90;;;;;;5065639;28;20125;-76
2022/08/05 03:02:51;;;;;;;0.20;0.20;;;18.60;99.90;;;;;;5066055;28;20060;-76
2022/08/05 03:05:18;;;;;;;0.20;0.20;;;18.60;99.90;;;;;;5062769;28;20040;-75
2022/08/05 03:07:44;;;;;;;0.20;0.20;;;18.60;99.90;;;;;;5060990;28;20037;-76
2022/08/05 03:10:10;;;;;;;0.13;0.13;;;18.60;99.90;;;;;;5054022;28;20052;-76
2022/08/05 03:12:37;;;;;;;0.10;0.10;;;18.60;99.90;;;;;;5054166;28;20684;-78
2022/08/05 03:15:08;;;;;;;0.20;0.20;;;18.60;99.90;;;;;;5073016;28;20041;-76
2022/08/05 03:17:34;;;;;;;0.17;0.17;;;18.60;99.90;;;;;;5059021;28;20044;-76
2022/08/05 03:19:59;;;;;;;0.20;0.20;;;18.70;99.90;;;;;;5062072;28;20037;-76
2022/08/05 03:22:25;;;;;;;0.10;0.10;;;18.60;99.90;;;;;;5066716;28;20075;-76
2022/08/05 03:24:51;;;;;;;0.10;0.10;;;18.60;99.90;;;;;;5053277;28;20040;-76
2022/08/05 03:27:19;;;;;;;0.10;0.10;;;18.60;99.90;;;;;;5081839;28;20055;-76
2022/08/05 03:29:45;;;;;;;0.20;0.20;;;18.60;99.90;;;;;;5068930;28;20049;-76
2022/08/05 03:32:12;;;;;;;0.20;0.20;;;18.60;99.90;;;;;;5060889;28;20032;-75
2022/08/05 03:34:38;;;;;;;0.10;0.10;;;18.60;99.90;;;;;;5062111;28;20068;-76
2022/08/05 03:37:05;;;;;;;0.20;0.20;;;18.60;99.90;;;;;;5054949;28;20073;-76
2022/08/05 03:39:30;;;;;;;0.20;0.20;;;18.60;99.90;;;;;;5056569;28;20063;-76
2022/08/05 03:41:56;;;;;;;0.20;0.20;;;18.60;99.90;;;;;;5066940;28;20036;-76
2022/08/05 03:44:23;;;;;;;0.10;0.10;;;18.60;99.90;;;;;;5054939;28;20075;-76
2022/08/05 03:46:49;;;;;;;0.20;0.20;;;18.60;99.90;;;;;;5059768;28;20037;-76
2022/08/05 03:49:15;;;;;;;0.20;0.20;;;18.60;99.90;;;;;;5058539;28;20040;-76
2022/08/05 03:52:01;;;;;;;0.20;0.20;;;18.70;99.90;;;;;;5067104;28;20657;-77
2022/08/05 03:54:34;;;;;;;0.20;0.20;;;18.60;99.90;;;;;;5056693;28;20076;-76
2022/08/05 03:57:02;;;;;;;0.20;0.20;;;18.60;99.90;;;;;;5067592;28;20032;-77
2022/08/05 03:59:40;;;;;;;0.20;0.20;;;18.50;99.90;;;;;;5070263;28;20500;-75
2022/08/05 04:02:07;;;;;;;0.20;0.20;;;18.50;99.90;;;;;;5066423;28;20053;-77
2022/08/05 04:04:33;;;;;;;0.10;0.10;;;18.50;99.90;;;;;;5074173;28;20041;-76
2022/08/05 04:07:00;;;;;;;0.10;0.10;;;18.50;99.90;;;;;;5058227;28;20044;-75
2022/08/05 04:09:28;;;;;;;0.20;0.20;;;18.50;99.90;;;;;;5064710;28;20061;-75
2022/08/05 04:11:55;;;;;;;0.20;0.20;;;18.50;99.90;;;;;;5057368;28;20066;-75
2022/08/05 04:14:20;;;;;;;0.20;0.20;;;18.50;99.90;;;;;;5068982;28;20485;-76
2022/08/05 04:16:47;;;;;;;0.20;0.20;;;18.60;99.90;;;;;;5059734;28;20049;-76
2022/08/05 04:19:13;;;;;;;0.20;0.20;;;18.50;99.90;;;;;;5066904;28;20044;-75
2022/08/05 04:21:39;;;;;;;0.13;0.13;;;18.50;99.90;;;;;;5060801;28;20505;-76
2022/08/05 04:24:05;;;;;;;0.20;0.20;;;18.50;99.90;;;;;;5064354;28;20040;-76
2022/08/05 04:26:31;;;;;;;0.20;0.20;;;18.50;99.90;;;;;;5066645;28;20166;-76
2022/08/05 04:28:56;;;;;;;0.20;0.20;;;18.50;99.90;;;;;;5067289;28;20495;-76
2022/08/05 04:31:22;;;;;;;0.17;0.17;;;18.50;99.90;;;;;;5085345;28;20044;-75
2022/08/05 04:33:48;;;;;;;0.20;0.20;;;18.50;99.90;;;;;;5066844;28;20392;-76
2022/08/05 04:36:14;;;;;;;0.15;0.15;;;18.40;99.90;;;;;;5061554;28;20056;-74
2022/08/05 04:38:42;;;;;;;0.13;0.13;;;18.50;99.90;;;;;;5066873;28;20044;-76
2022/08/05 04:41:08;;;;;;;0.20;0.20;;;18.40;99.90;;;;;;5067833;28;20033;-76
2022/08/05 04:43:36;;;;;;;0.20;0.20;;;18.40;99.90;;;;;;5059440;28;20123;-76
2022/08/05 04:46:05;;;;;;;0.10;0.10;;;18.40;99.90;;;;;;5052794;28;20496;-76
2022/08/05 04:48:31;;;;;;;0.20;0.20;;;18.40;99.90;;;;;;5076193;28;20059;-76
2022/08/05 04:50:56;;;;;;;0.20;0.20;;;18.40;99.90;;;;;;5055146;28;20033;-76
2022/08/05 04:53:22;;;;;;;0.10;0.10;;;18.40;99.90;;;;;;5058791;28;20036;-75
2022/08/05 04:55:48;;;;;;;0.10;0.10;;;18.40;99.90;;;;;;5065603;28;20041;-76
2022/08/05 04:58:16;;;;;;;0.20;0.20;;;18.40;99.90;;;;;;5067019;28;20044;-77
2022/08/05 05:00:42;;;;;;;0.20;0.20;;;18.30;99.90;;;;;;5072625;28;20131;-75
2022/08/05 05:03:09;;;;;;;0.10;0.10;;;18.40;99.90;;;;;;5068470;28;20047;-75
2022/08/05 05:05:36;;;;;;;0.10;0.10;;;18.40;99.90;;;;;;5053298;28;20043;-76
2022/08/05 05:08:04;;;;;;;0.20;0.20;;;18.40;99.90;;;;;;5059111;28;20408;-76
2022/08/05 05:10:31;;;;;;;0.20;0.20;;;18.40;99.90;;;;;;5061509;28;20029;-75
2022/08/05 05:12:57;;;;;;;0.20;0.20;;;18.40;99.90;;;;;;5066033;28;20125;-75
2022/08/05 05:15:24;;;;;;;0.20;0.20;;;18.40;99.90;;;;;;5063709;28;20049;-75
2022/08/05 05:17:49;;;;;;;0.20;0.20;;;18.40;99.90;;;;;;5070365;28;20043;-75
2022/08/05 05:20:15;;;;;;;0.20;0.20;;;18.40;99.90;;;;;;5066229;28;20040;-76
2022/08/05 05:22:40;;;;;;;0.13;0.13;;;18.50;99.90;;;;;;5062075;28;20361;-75
2022/08/05 05:25:07;;;;;;;0.20;0.20;;;18.40;99.90;;;;;;5069141;28;20032;-75
2022/08/05 05:27:35;;;;;;;0.10;0.10;;;18.40;99.90;;;;;;5062742;28;20033;-76
2022/08/05 05:30:01;;;;;;;0.10;0.10;;;18.40;99.90;;;;;;5065316;28;20475;-76
2022/08/05 05:32:27;;;;;;;0.10;0.10;;;18.50;99.90;;;;;;5077264;28;20656;-76
2022/08/05 05:34:53;;;;;;;0.20;0.20;;;18.50;99.90;;;;;;5059665;28;20049;-76
2022/08/05 05:37:18;;;;;;;0.20;0.20;;;18.40;99.90;;;;;;5060193;28;20489;-75
2022/08/05 05:39:44;;;;;;;0.20;0.20;;;18.40;99.90;;;;;;5059653;28;20571;-76
2022/08/05 05:42:10;;;;;;;0.20;0.20;;;18.50;99.90;;;;;;5060474;28;20049;-75
2022/08/05 05:44:35;;;;;;;0.20;0.20;;;18.40;99.90;;;;;;5061807;28;20552;-76
2022/08/05 05:47:01;;;;;;;0.20;0.20;;;18.40;99.90;;;;;;5061311;28;20135;-76
2022/08/05 05:49:27;;;;;;;0.20;0.20;;;18.40;99.90;;;;;;5053422;28;20071;-75
2022/08/05 05:51:55;;;;;;;0.20;0.20;;;18.40;99.90;;;;;;5069299;28;20044;-75
2022/08/05 05:54:21;;;;;;;0.10;0.10;;;18.30;99.90;;;;;;5065422;28;20040;-76
2022/08/05 05:56:47;;;;;;;0.20;0.20;;;18.30;99.90;;;;;;5057371;28;20079;-75
2022/08/05 05:59:12;;;;;;;0.20;0.20;;;18.30;99.90;;;;;;5067706;28;20045;-75
2022/08/05 06:01:40;;;;;;;0.20;0.20;;;18.30;99.90;;;;;;5052292;28;20084;-76
2022/08/05 06:04:07;;;;;;;0.20;0.20;;;18.20;99.90;;;;;;5058933;28;20782;-76
2022/08/05 06:06:33;;;;;;;0.20;0.20;;;18.30;99.90;;;;;;5056604;28;20036;-76
2022/08/05 06:08:59;;;;;;;0.20;0.20;;;18.30;99.90;;;;;;5057121;28;20544;-76
2022/08/05 06:11:24;;;;;;;0.20;0.20;;;18.30;99.90;;;;;;5054440;28;20400;-76
2022/08/05 06:13:50;;;;;;;0.20;0.20;;;18.30;99.90;;;;;;5056069;28;20044;-77
2022/08/05 06:16:16;;;;;;;0.10;0.10;;;18.30;99.90;;;;;;5060305;28;20040;-77
2022/08/05 06:18:41;;;;;;;0.20;0.20;;;18.30;99.90;;;;;;5051998;28;20079;-77
2022/08/05 06:21:07;;;;;;;0.20;0.20;;;18.20;99.90;;;;;;5072339;28;20115;-77
2022/08/05 06:23:32;;;;;;;0.20;0.20;;;18.30;99.90;;;;;;5073154;28;20480;-77
2022/08/05 06:25:58;;;;;;;0.15;0.15;;;18.30;99.90;;;;;;5064623;28;20086;-76
2022/08/05 06:28:23;;;;;;;0.20;0.20;;;18.40;99.90;;;;;;5053201;28;20376;-76
2022/08/05 06:30:49;;;;;;;0.10;0.10;;;18.50;99.90;;;;;;5061839;28;20075;-79
2022/08/05 06:33:15;;;;;;;0.10;0.10;;;18.40;99.90;;;;;;5053771;28;20049;-79
2022/08/05 06:35:41;;;;;;;0.13;0.13;;;18.50;99.90;;;;;;5066393;28;20480;-79
2022/08/05 06:38:06;;;;;;;0.20;0.20;;;18.50;99.90;;;;;;5052358;28;20043;-80
2022/08/05 06:40:32;;;;;;;0.20;0.20;;;18.60;99.90;;;;;;5054327;28;20103;-80
2022/08/05 06:42:57;;;;;;;0.20;0.20;;;18.60;99.90;;;;;;5060868;28;20559;-79
2022/08/05 06:45:23;;;;;;;0.10;0.10;;;18.70;99.90;;;;;;5067891;28;20047;-80
2022/08/05 06:47:49;;;;;;;0.13;0.13;;;18.70;99.90;;;;;;5066393;28;20047;-80
2022/08/05 06:50:14;;;;;;;0.20;0.20;;;18.80;99.90;;;;;;5064903;28;20040;-80
2022/08/05 06:52:40;;;;;;;0.10;0.10;;;18.80;99.90;;;;;;5049528;28;20051;-79
2022/08/05 06:55:06;;;;;;;0.20;0.20;;;18.90;99.90;;;;;;5047495;28;20118;-80
2022/08/05 06:57:32;;;;;;;0.10;0.10;;;18.90;99.90;;;;;;5056450;28;20389;-80
2022/08/05 06:59:57;;;;;;;0.10;0.10;;;19.00;99.90;;;;;;5067955;28;20071;-81
2022/08/05 07:02:23;;;;;;;0.10;0.10;;;19.00;99.90;;;;;;5049905;28;20052;-79
2022/08/05 07:04:49;;;;;;;0.10;0.10;;;19.10;99.90;;;;;;5058628;28;20036;-79
2022/08/05 07:07:14;;;;;;;0.20;0.20;;;19.10;99.90;;;;;;5055250;28;20064;-77
2022/08/05 07:09:41;;;;;;;0.20;0.20;;;19.10;99.90;;;;;;5053759;28;20668;-80
2022/08/05 07:16:48;;;;;;;0.20;0.20;;;19.20;99.90;;;;;;5060247;28;20170;-80
2022/08/05 07:17:40;;;;;;;0.20;0.20;;;19.30;99.90;;;;;;5061082;28;20044;-80
2022/08/05 07:20:06;;;;;;;0.10;0.10;;;19.30;99.90;;;;;;5060682;28;20451;-80
2022/08/05 07:22:31;;;;;;;0.20;0.20;;;19.30;99.90;;;;;;5059806;28;20041;-80
2022/08/05 07:24:59;;;;;;;0.20;0.20;;;19.30;99.90;;;;;;5054961;28;20049;-80
2022/08/05 07:27:24;;;;;;;0.20;0.20;;;19.30;99.90;;;;;;5063413;28;20036;-80
2022/08/05 07:29:50;;;;;;;0.20;0.20;;;19.40;99.90;;;;;;5078900;28;20036;-80
2022/08/05 07:32:15;;;;;;;0.20;0.20;;;19.40;99.90;;;;;;5062973;28;20041;-80
2022/08/05 07:34:41;;;;;;;0.20;0.20;;;19.40;99.90;;;;;;5057318;28;20040;-80
2022/08/05 07:37:07;;;;;;;0.20;0.20;;;19.40;99.90;;;;;;5052354;28;20040;-80
2022/08/05 07:39:33;;;;;;;0.10;0.10;;;19.50;99.90;;;;;;5062658;28;20056;-80
2022/08/05 07:41:58;;;;;;;0.20;0.20;;;19.50;99.90;;;;;;5051001;28;20123;-80
2022/08/05 07:44:24;;;;;;;0.20;0.20;;;19.50;99.90;;;;;;5052493;28;20145;-79
2022/08/05 07:46:49;;;;;;;0.10;0.10;;;19.60;99.90;;;;;;5055030;28;20216;-81
2022/08/05 07:49:15;;;;;;;0.10;0.10;;;19.60;99.90;;;;;;5062710;28;20041;-80
2022/08/05 07:51:41;;;;;;;0.20;0.20;;;19.70;99.90;;;;;;5065707;28;20051;-80
2022/08/05 07:54:07;;;;;;;0.10;0.10;;;19.80;99.90;;;;;;5069973;28;20048;-80
2022/08/05 07:56:33;;;;;;;0.20;0.20;;;19.90;99.90;;;;;;5071902;28;20044;-81
2022/08/05 07:58:58;;;;;;;0.17;0.17;;;19.80;99.90;;;;;;5065188;28;20041;-79
2022/08/05 08:01:26;;;;;;;0.20;0.20;;;19.90;99.90;;;;;;5062738;28;20550;-79
2022/08/05 08:03:52;;;;;;;0.20;0.20;;;19.90;99.90;;;;;;5072703;28;20045;-79
2022/08/05 08:06:17;;;;;;;0.20;0.20;;;19.90;99.90;;;;;;5053389;28;20047;-79
2022/08/05 08:08:43;;;;;;;0.13;0.13;;;19.90;99.90;;;;;;5075452;28;20044;-79
2022/08/05 08:11:08;;;;;;;0.20;0.20;;;20.00;99.90;;;;;;5053719;28;20044;-80
2022/08/05 08:13:34;;;;;;;0.20;0.20;;;20.10;99.90;;;;;;5054017;28;20090;-80
2022/08/05 08:16:00;;;;;;;0.10;0.10;;;20.10;99.90;;;;;;5070269;28;20040;-81
2022/08/05 08:18:25;;;;;;;0.10;0.10;;;20.10;99.90;;;;;;5061790;28;20053;-80
2022/08/05 08:20:51;;;;;;;0.20;0.20;;;20.10;99.90;;;;;;5067019;28;20546;-79
2022/08/05 08:23:17;;;;;;;0.20;0.20;;;20.20;99.90;;;;;;5060471;28;20033;-80
2022/08/05 08:25:43;;;;;;;0.10;0.10;;;20.30;99.90;;;;;;5061883;28;20048;-80
2022/08/05 08:28:09;;;;;;;0.10;0.10;;;20.30;99.90;;;;;;5060994;28;20047;-80
2022/08/05 08:30:38;;;;;;;0.20;0.20;;;20.40;99.90;;;;;;5069312;28;20120;-79
2022/08/05 08:33:10;;;;;;;0.10;0.10;;;20.40;99.90;;;;;;5062705;28;20051;-80
2022/08/05 08:35:36;;;;;;;0.20;0.20;;;20.40;99.90;;;;;;5067348;28;20095;-80
2022/08/05 08:38:02;;;;;;;0.13;0.13;;;20.40;99.90;;;;;;5062945;28;20496;-81
2022/08/05 08:40:34;;;;;;;0.20;0.20;;;20.40;99.90;;;;;;5067217;28;20048;-80
2022/08/05 08:43:00;;;;;;;0.20;0.20;;;20.30;99.90;;;;;;5061260;28;20045;-80
2022/08/05 08:45:28;;;;;;;0.20;0.20;;;20.30;99.90;;;;;;5059939;28;20036;-80
2022/08/05 08:47:55;;;;;;;0.20;0.20;;;20.20;99.90;;;;;;5064010;28;20051;-80
2022/08/05 08:50:21;;;;;;;0.20;0.20;;;20.20;99.90;;;;;;5062671;28;20059;-80
2022/08/05 08:52:53;;;;;;;0.10;0.10;;;20.30;99.90;;;;;;5062794;28;20045;-79
2022/08/05 08:55:19;;;;;;;0.20;0.20;;;20.30;99.90;;;;;;5060879;28;20055;-81
2022/08/05 08:57:46;;;;;;;0.20;0.20;;;20.40;99.90;;;;;;5058197;28;20397;-78
2022/08/05 09:00:13;;;;;;;0.20;0.20;;;20.40;99.90;;;;;;5068938;28;20114;-80
2022/08/05 09:02:39;;;;;;;0.20;0.20;;;20.40;99.90;;;;;;5065985;28;20099;-82
2022/08/05 09:05:05;;;;;;;0.20;0.20;;;20.50;99.90;;;;;;5065954;28;20040;-81
2022/08/05 09:07:31;;;;;;;0.13;0.13;;;20.50;99.90;;;;;;5067916;28;20037;-80
2022/08/05 09:09:56;;;;;;;0.20;0.20;;;20.60;99.90;;;;;;5049674;28;20116;-81
2022/08/05 09:12:22;;;;;;;0.20;0.20;;;20.60;99.90;;;;;;5069760;28;20146;-80
2022/08/05 09:14:48;;;;;;;0.20;0.20;;;20.60;99.90;;;;;;5061893;28;20039;-80
2022/08/05 09:17:15;;;;;;;0.20;0.20;;;20.60;99.90;;;;;;5064670;28;20081;-80
2022/08/05 09:19:40;;;;;;;0.20;0.20;;;20.60;99.90;;;;;;5065710;28;20352;-80
2022/08/05 09:22:07;;;;;;;0.20;0.20;;;20.70;99.90;;;;;;5066743;28;20058;-80
2022/08/05 09:24:36;;;;;;;0.20;0.20;;;20.70;99.90;;;;;;5063843;28;20116;-80
2022/08/05 09:27:07;;;;;;;0.10;0.10;;;20.60;99.90;;;;;;5069865;28;20041;-81
2022/08/05 09:29:44;;;;;;;0.10;0.10;;;20.60;99.90;;;;;;5065187;28;20036;-81
2022/08/05 09:32:10;;;;;;;0.20;0.20;;;20.70;99.90;;;;;;5064774;28;20080;-81
2022/08/05 09:34:53;;;;;;;0.20;0.20;;;20.60;99.90;;;;;;5053321;28;20166;-79
2022/08/05 09:37:24;;;;;;;0.20;0.20;;;20.60;99.90;;;;;;5050684;28;20041;-82
2022/08/05 09:39:50;;;;;;;0.20;0.20;;;20.60;99.90;;;;;;5048430;28;20413;-81
2022/08/05 09:42:17;;;;;;;0.20;0.20;;;20.70;99.90;;;;;;5048593;28;20045;-82
2022/08/05 09:44:50;;;;;;;0.20;0.20;;;20.70;99.90;;;;;;5049812;28;20041;-80
2022/08/05 09:47:22;;;;;;;0.20;0.20;;;20.60;99.90;;;;;;5064629;28;20079;-81
2022/08/05 09:49:53;;;;;;;0.20;0.20;;;20.70;99.90;;;;;;5070334;28;20557;-80
2022/08/05 09:52:26;;;;;;;0.20;0.20;;;20.70;99.90;;;;;;5051697;28;20095;-81
2022/08/05 09:55:03;;;;;;;0.13;0.13;;;20.80;99.90;;;;;;5049048;28;20041;-81
2022/08/05 09:57:39;;;;;;;0.20;0.20;;;20.80;99.90;;;;;;5048614;28;20106;-82
2022/08/05 10:00:20;;;;;;;0.17;0.17;;;20.80;99.90;;;;;;5067938;28;20071;-81
2022/08/05 10:02:47;;;;;;;0.20;0.20;;;20.80;99.90;;;;;;5060929;28;20063;-80
2022/08/05 10:05:23;;;;;;;0.20;0.20;;;20.80;99.90;;;;;;5079054;28;20041;-80
2022/08/05 10:07:51;;;;;;;0.20;0.20;;;20.80;99.90;;;;;;5069024;28;20087;-80
2022/08/05 10:10:45;;;;;;;0.20;0.20;;;20.80;99.90;;;;;;5065328;28;20387;-82
2022/08/05 10:13:24;;;;;;;0.20;0.20;;;20.90;99.90;;;;;;5046952;28;20500;-81
2022/08/05 10:15:50;;;;;;;0.13;0.13;;;20.90;99.90;;;;;;5051548;28;20045;-80
2022/08/05 10:18:20;;;;;;;0.20;0.20;;;20.90;99.90;;;;;;5060739;28;20048;-80
2022/08/05 10:20:52;;;;;;;0.13;0.13;;;21.00;99.90;;;;;;5066639;28;20122;-80
2022/08/05 10:23:26;;;;;;;0.20;0.20;;;21.00;99.90;;;;;;5059336;28;20052;-81
2022/08/05 10:25:54;;;;;;;0.20;0.20;;;21.00;99.90;;;;;;5064352;28;20044;-82
2022/08/05 10:28:19;;;;;;;0.17;0.17;;;20.90;99.90;;;;;;5063903;28;20040;-81
2022/08/05 10:30:45;;;;;;;0.20;0.20;;;21.00;99.90;;;;;;5058906;28;20052;-79
2022/08/05 10:33:11;;;;;;;0.10;0.10;;;21.00;99.90;;;;;;5060771;28;20124;-80
2022/08/05 10:35:37;;;;;;;0.10;0.10;;;21.00;99.90;;;;;;5059704;28;20076;-79
2022/08/05 10:38:04;;;;;;;0.20;0.20;;;21.00;99.90;;;;;;5059491;28;20396;-81
2022/08/05 10:40:53;;;;;;;0.10;0.10;;;21.00;99.80;;;;;;5060464;28;20052;-81
2022/08/05 10:43:49;;;;;;;0.20;0.20;;;21.00;99.70;;;;;;5060431;28;20392;-80
2022/08/05 10:46:17;;;;;;;0.20;0.20;;;21.00;99.60;;;;;;5064904;28;20068;-80
2022/08/05 10:48:47;;;;;;;0.17;0.17;;;21.00;99.30;;;;;;5064749;28;20409;-82
2022/08/05 10:51:15;;;;;;;0.28;0.28;;;21.00;98.70;;;;;;5065546;28;20492;-82
2022/08/05 10:53:52;;;;;;;0.10;0.10;;;21.10;99.00;;;;;;5062913;28;20041;-81
2022/08/05 10:56:22;;;;;;;0.20;0.20;;;21.20;99.10;;;;;;5068295;28;20385;-82
2022/08/05 10:58:54;;;;;;;0.20;0.20;;;21.10;99.20;;;;;;5071690;28;20044;-81
2022/08/05 11:01:35;;;;;;;0.20;0.20;;;21.10;99.20;;;;;;5059166;28;20040;-81
2022/08/05 11:04:06;;;;;;;0.20;0.20;;;21.10;99.10;;;;;;5076181;28;20547;-81
2022/08/05 11:06:33;;;;;;;0.20;0.20;;;21.10;98.70;;;;;;5065858;28;20040;-81
2022/08/05 11:09:21;;;;;;;0.10;0.10;;;21.10;99.00;;;;;;5061108;28;20048;-82
2022/08/05 11:11:54;;;;;;;0.20;0.20;;;21.10;99.10;;;;;;5065327;28;20053;-82
2022/08/05 11:14:27;;;;;;;0.20;0.20;;;21.20;98.80;;;;;;5068230;28;20032;-80
2022/08/05 11:17:25;;;;;;;0.20;0.20;;;21.20;98.30;;;;;;5068442;28;20366;-81
2022/08/05 11:19:52;;;;;;;0.20;0.20;;;21.20;98.30;;;;;;5063881;28;20045;-81
2022/08/05 11:22:47;;;;;;;0.20;0.20;;;21.30;98.00;;;;;;5068036;28;20040;-80
2022/08/05 11:25:37;;;;;;;0.20;0.20;;;21.20;97.30;;;;;;5066822;28;20052;-81
2022/08/05 11:28:12;;;;;;;0.10;0.10;;;21.20;97.00;;;;;;5068150;28;20036;-81
2022/08/05 11:30:55;;;;;;;0.20;0.20;;;21.20;96.90;;;;;;5069273;28;20136;-89
2022/08/05 11:33:27;;;;;;;0.17;0.17;;;21.30;96.70;;;;;;5063140;28;20053;-88
2022/08/05 11:35:58;;;;;;;0.10;0.10;;;21.30;97.10;;;;;;5078920;28;20041;-87
2022/08/05 11:38:42;;;;;;;;;;;21.40;97.30;;;;;;5069980;28;20059;-92
2022/08/05 11:41:17;;;;;;;0.20;0.20;;;21.50;97.60;;;;;;5061923;28;19920;-94
2022/08/05 11:44:01;;;;;;;0.20;0.20;;;21.50;98.00;;;;;;5088788;28;20040;-93
2022/08/05 11:46:28;;;;;;;0.15;0.15;;;21.50;97.90;;;;;;5087814;28;20487;-94
2022/08/05 11:48:58;;;;;;;0.20;0.20;;;21.50;97.30;;;;;;5070850;28;20045;-88
2022/08/05 11:51:27;;;;;;;0.30;0.30;;;21.50;97.10;;;;;;5065702;28;20049;-90
2022/08/05 11:53:54;;;;;;;0.20;0.20;;;21.60;97.20;;;;;;5079326;28;20033;-90
2022/08/05 11:56:20;;;;;;;0.20;0.20;;;21.70;96.90;;;;;;5084993;28;20037;-93
2022/08/05 11:58:47;;;;;;;0.20;0.20;;;21.70;96.70;;;;;;5078385;28;20040;-90
2022/08/05 12:01:20;;;;;;;0.20;0.20;;;21.70;96.50;;;;;;5065995;28;20123;-85
2022/08/05 12:03:50;;;;;;;0.20;0.20;;;21.80;96.40;;;;;;5058188;28;20132;-91
2022/08/05 12:06:17;;;;;;;0.20;0.20;;;21.80;96.80;;;;;;5063531;28;20032;-82
2022/08/05 12:08:51;;;;;;;0.20;0.20;;;21.80;97.00;;;;;;5058935;28;20044;-80
2022/08/05 12:11:28;;;;;;;0.20;0.20;;;21.80;97.40;;;;;;5077985;28;20089;-80
2022/08/05 12:13:55;;;;;;;0.20;0.20;;;21.90;97.60;;;;;;5080918;28;20075;-80
2022/08/05 12:16:30;;;;;;;0.20;0.20;;;21.80;96.50;;;;;;5072985;28;20116;-79
2022/08/05 12:18:56;;;;;;;0.20;0.20;;;21.70;96.70;;;;;;5083509;28;20124;-81
2022/08/05 12:21:24;;;;;;;0.20;0.20;;;21.60;97.10;;;;;;5092696;28;20121;-81
2022/08/05 12:23:53;;;;;;;0.20;0.20;;;21.50;97.10;;;;;;5079970;28;20040;-79
2022/08/05 12:26:19;;;;;;;0.20;0.20;;;21.40;96.10;;;;;;5060401;28;20032;-80
2022/08/05 12:28:45;;;;;;;0.30;0.30;;;21.30;96.80;;;;;;5066044;28;20056;-79
2022/08/05 12:31:11;;;;;;;0.20;0.20;;;21.30;97.30;;;;;;5071110;28;20828;-80
2022/08/05 12:33:37;;;;;;;0.25;0.25;;;21.40;97.60;;;;;;5074219;28;20546;-78
2022/08/05 12:36:03;;;;;;;0.20;0.20;;;21.50;96.80;;;;;;5081355;28;20037;-80
2022/08/05 12:38:29;;;;;;;0.20;0.20;;;21.70;97.20;;;;;;5056755;28;20742;-80
2022/08/05 12:40:56;;;;;;;0.20;0.20;;;21.80;97.30;;;;;;5053628;28;20048;-79
2022/08/05 12:43:21;;;;;;;0.20;0.20;;;22.00;97.40;;;;;;5052695;28;20082;-80
2022/08/05 12:45:54;;;;;;;0.20;0.20;;;22.20;97.00;;;;;;5056531;28;20471;-81
2022/08/05 12:48:21;;;;;;;0.20;0.20;;;22.30;96.10;;;;;;5054391;28;20102;-80
2022/08/05 12:51:09;;;;;;;0.20;0.20;;;22.30;96.30;;;;;;5054190;28;20045;-80
2022/08/05 12:53:43;;;;;;;0.20;0.20;;;22.40;96.10;;;;;;5064503;28;20040;-81
2022/08/05 12:56:21;;;;;;;0.10;0.10;;;22.40;95.60;;;;;;5070976;28;20069;-80
2022/08/05 12:59:18;;;;;;;0.20;0.20;;;22.40;95.00;;;;;;5061519;28;20075;-81